createdAt,value
2018-09-02T00:01:39.033Z,7.23
2018-09-02T00:04:08.016Z,7.57
2018-09-02T00:06:36.848Z,7.57
2018-09-02T00:09:06.573Z,7.67
2018-09-02T00:11:35.462Z,7.17
2018-09-02T00:14:04.398Z,7.50
2018-09-02T00:16:33.296Z,7.30
2018-09-02T00:19:02.242Z,8.03
2018-09-02T00:21:31.064Z,7.20
2018-09-02T00:23:59.868Z,7.13
2018-09-02T00:26:28.886Z,7.17
2018-09-02T00:28:57.696Z,6.93
2018-09-02T00:31:26.499Z,7.60
2018-09-02T00:33:55.406Z,6.87
2018-09-02T00:36:24.378Z,7.00
2018-09-02T00:38:53.268Z,6.93
2018-09-02T00:41:22.162Z,6.70
2018-09-02T00:43:51.147Z,7.00
2018-09-02T00:46:20.016Z,6.20
2018-09-02T00:48:48.888Z,7.33
2018-09-02T00:51:20.559Z,6.90
2018-09-02T00:53:49.526Z,6.67
2018-09-02T00:56:18.382Z,6.77
2018-09-02T00:58:47.180Z,6.90
2018-09-02T01:01:16.024Z,6.77
2018-09-02T01:03:44.906Z,6.40
2018-09-02T01:06:14.162Z,7.33
2018-09-02T01:08:42.999Z,6.53
2018-09-02T01:11:11.893Z,6.70
2018-09-02T01:13:40.738Z,6.57
2018-09-02T01:16:09.592Z,6.67
2018-09-02T01:18:38.535Z,6.00
2018-09-02T01:21:07.340Z,6.33
2018-09-02T01:23:36.307Z,6.90
2018-09-02T01:26:05.142Z,6.60
2018-09-02T01:28:34.091Z,6.50
2018-09-02T01:31:02.978Z,6.30
2018-09-02T01:33:31.795Z,6.63
2018-09-02T01:36:00.591Z,6.97
2018-09-02T01:38:29.466Z,6.60
2018-09-02T01:40:58.380Z,6.50
2018-09-02T01:43:27.192Z,6.70
2018-09-02T01:45:56.086Z,6.27
2018-09-02T01:48:24.895Z,6.70
2018-09-02T01:50:53.756Z,7.13
2018-09-02T01:53:22.591Z,6.50
2018-09-02T01:55:52.370Z,6.70
2018-09-02T01:58:21.190Z,6.47
2018-09-02T02:00:50.075Z,6.67
2018-09-02T02:03:18.877Z,6.10
2018-09-02T02:05:47.698Z,6.47
2018-09-02T02:08:16.597Z,6.20
2018-09-02T02:10:45.458Z,6.50
2018-09-02T02:13:14.296Z,6.60
2018-09-02T02:15:43.266Z,6.10
2018-09-02T02:18:12.089Z,5.97
2018-09-02T02:20:40.943Z,6.57
2018-09-02T02:23:09.848Z,5.60
2018-09-02T02:25:38.664Z,6.30
2018-09-02T02:28:07.510Z,6.80
2018-09-02T02:30:36.404Z,6.83
2018-09-02T02:33:05.242Z,5.70
2018-09-02T02:35:34.075Z,6.23
2018-09-02T02:38:02.991Z,6.50
2018-09-02T02:40:31.780Z,6.03
2018-09-02T02:43:00.620Z,6.87
2018-09-02T02:45:29.486Z,6.37
2018-09-02T02:47:58.302Z,5.97
2018-09-02T02:50:27.160Z,5.90
2018-09-02T02:53:05.323Z,6.50
2018-09-02T02:55:35.329Z,6.60
2018-09-02T02:58:04.272Z,7.03
2018-09-02T03:00:33.603Z,6.47
2018-09-02T03:03:02.469Z,6.73
2018-09-02T03:05:31.313Z,6.00
2018-09-02T03:08:00.156Z,5.70
2018-09-02T03:10:29.005Z,6.47
2018-09-02T03:12:57.820Z,6.30
2018-09-02T03:15:26.681Z,7.10
2018-09-02T03:17:55.479Z,6.20
2018-09-02T03:20:24.298Z,6.07
2018-09-02T03:22:53.328Z,6.63
2018-09-02T03:25:22.165Z,6.13
2018-09-02T03:27:51.073Z,7.00
2018-09-02T03:30:19.992Z,6.27
2018-09-02T03:32:48.856Z,6.40
2018-09-02T03:35:17.792Z,6.73
2018-09-02T03:37:46.639Z,5.93
2018-09-02T03:40:15.437Z,6.77
2018-09-02T03:42:44.391Z,6.37
2018-09-02T03:45:13.324Z,6.57
2018-09-02T03:47:42.208Z,7.30
2018-09-02T03:50:11.025Z,6.90
2018-09-02T03:52:39.968Z,5.93
2018-09-02T03:55:08.850Z,6.27
2018-09-02T03:57:37.647Z,6.50
2018-09-02T04:00:06.767Z,6.57
2018-09-02T04:02:35.676Z,6.30
2018-09-02T04:05:04.574Z,6.40
2018-09-02T04:07:33.705Z,6.60
2018-09-02T04:10:02.512Z,6.33
2018-09-02T04:12:31.312Z,6.60
2018-09-02T04:15:00.300Z,6.67
2018-09-02T04:17:29.106Z,6.67
2018-09-02T04:19:57.906Z,6.57
2018-09-02T04:22:26.784Z,6.87
2018-09-02T04:24:55.670Z,6.00
2018-09-02T04:27:25.040Z,6.70
2018-09-02T04:29:53.984Z,6.30
2018-09-02T04:32:22.808Z,7.43
2018-09-02T04:34:51.642Z,6.67
2018-09-02T04:37:20.562Z,7.00
2018-09-02T04:39:49.572Z,6.77
2018-09-02T04:42:19.076Z,12.53
2018-09-02T04:44:48.971Z,8.83
2018-09-02T04:47:17.871Z,8.47
2018-09-02T04:49:46.713Z,7.53
2018-09-02T04:52:15.556Z,7.27
2018-09-02T04:54:44.590Z,8.10
2018-09-02T04:57:13.395Z,7.03
2018-09-02T04:59:42.251Z,7.67
2018-09-02T05:02:11.126Z,7.30
2018-09-02T05:04:40.000Z,7.20
2018-09-02T05:07:08.860Z,7.83
2018-09-02T05:09:37.693Z,6.57
2018-09-02T05:12:06.666Z,6.70
2018-09-02T05:14:35.573Z,7.37
2018-09-02T05:17:04.669Z,6.60
2018-09-02T05:19:33.489Z,7.27
2018-09-02T05:22:02.457Z,6.90
2018-09-02T05:24:31.254Z,7.00
2018-09-02T05:27:00.115Z,7.83
2018-09-02T05:29:28.970Z,7.17
2018-09-02T05:31:58.741Z,7.00
2018-09-02T05:34:27.561Z,7.13
2018-09-02T05:36:56.483Z,8.23
2018-09-02T05:39:25.312Z,7.40
2018-09-02T05:41:54.140Z,7.00
2018-09-02T05:44:23.028Z,7.10
2018-09-02T05:46:51.833Z,7.10
2018-09-02T05:49:20.747Z,7.53
2018-09-02T05:51:49.639Z,7.20
2018-09-02T05:54:18.884Z,6.50
2018-09-02T05:56:47.679Z,7.13
2018-09-02T05:59:16.601Z,6.40
2018-09-02T06:01:45.423Z,6.73
2018-09-02T06:04:14.212Z,7.00
2018-09-02T06:06:43.070Z,6.87
2018-09-02T06:09:12.148Z,6.83
2018-09-02T06:11:40.975Z,5.87
2018-09-02T06:14:09.852Z,7.00
2018-09-02T06:16:38.686Z,7.10
2018-09-02T06:19:07.492Z,7.07
2018-09-02T06:21:36.449Z,6.63
2018-09-02T06:24:05.321Z,6.20
2018-09-02T06:26:34.124Z,6.70
2018-09-02T06:29:03.042Z,6.80
2018-09-02T06:31:32.230Z,6.40
2018-09-02T06:34:01.030Z,7.30
2018-09-02T06:36:29.905Z,6.53
2018-09-02T06:38:58.711Z,6.00
2018-09-02T06:41:27.492Z,6.00
2018-09-02T06:43:56.340Z,6.40
2018-09-02T06:46:25.155Z,6.60
2018-09-02T06:48:54.044Z,6.87
2018-09-02T06:51:22.886Z,6.37
2018-09-02T06:53:51.777Z,6.47
2018-09-02T06:56:20.592Z,6.53
2018-09-02T06:58:49.444Z,6.30
2018-09-02T07:01:18.249Z,6.03
2018-09-02T07:03:47.079Z,6.70
2018-09-02T07:06:15.968Z,7.30
2018-09-02T07:08:44.772Z,6.13
2018-09-02T07:11:13.575Z,6.97
2018-09-02T07:13:42.426Z,6.43
2018-09-02T07:16:11.266Z,6.70
2018-09-02T07:18:40.076Z,7.20
2018-09-02T07:21:10.127Z,6.63
2018-09-02T07:23:38.942Z,7.17
2018-09-02T07:26:07.870Z,7.23
2018-09-02T07:28:36.792Z,7.40
2018-09-02T07:31:05.638Z,7.60
2018-09-02T07:33:34.508Z,7.35
2018-09-02T07:36:03.428Z,6.70
2018-09-02T07:38:32.328Z,7.60
2018-09-02T07:41:01.304Z,7.40
2018-09-02T07:43:30.197Z,6.80
2018-09-02T07:45:59.002Z,7.50
2018-09-02T07:48:27.795Z,7.95
2018-09-02T07:50:56.668Z,7.87
2018-09-02T07:53:25.529Z,6.92
2018-09-02T07:55:54.415Z,7.15
2018-09-02T07:58:23.251Z,8.43
2018-09-02T08:00:52.181Z,7.65
2018-09-02T08:03:20.990Z,8.43
2018-09-02T08:05:49.868Z,7.83
2018-09-02T08:08:18.767Z,9.73
2018-09-02T08:10:47.687Z,9.83
2018-09-02T08:13:16.835Z,9.30
2018-09-02T08:15:45.809Z,10.18
2018-09-02T08:18:14.626Z,10.72
2018-09-02T08:20:43.476Z,10.55
2018-09-02T08:23:12.456Z,9.90
2018-09-02T08:25:41.363Z,11.97
2018-09-02T08:28:10.249Z,11.33
2018-09-02T08:30:39.243Z,11.25
2018-09-02T08:33:08.144Z,12.95
2018-09-02T08:35:36.954Z,12.78
2018-09-02T08:38:05.825Z,12.50
2018-09-02T08:40:34.618Z,13.98
2018-09-02T08:43:03.567Z,15.68
2018-09-02T08:45:32.451Z,14.10
2018-09-02T08:48:01.268Z,13.60
2018-09-02T08:50:30.253Z,13.48
2018-09-02T08:52:59.177Z,13.20
2018-09-02T08:55:28.151Z,12.13
2018-09-02T08:57:57.057Z,11.33
2018-09-02T09:00:25.960Z,12.37
2018-09-02T09:02:54.841Z,11.75
2018-09-02T09:05:23.695Z,11.68
2018-09-02T09:07:52.668Z,11.75
2018-09-02T09:10:21.462Z,11.20
2018-09-02T09:12:50.308Z,11.63
2018-09-02T09:15:19.214Z,10.23
2018-09-02T09:17:48.028Z,11.60
2018-09-02T09:20:16.953Z,11.22
2018-09-02T09:22:45.863Z,12.07
2018-09-02T09:25:14.713Z,11.43
2018-09-02T09:27:43.511Z,11.70
2018-09-02T09:30:12.329Z,11.75
2018-09-02T09:32:41.172Z,12.60
2018-09-02T09:35:10.016Z,11.83
2018-09-02T09:37:38.864Z,12.25
2018-09-02T09:40:07.921Z,11.55
2018-09-02T09:42:36.779Z,11.30
2018-09-02T09:45:06.329Z,11.38
2018-09-02T09:47:35.373Z,11.45
2018-09-02T09:50:04.459Z,11.40
2018-09-02T09:52:33.344Z,12.25
2018-09-02T09:55:02.205Z,11.57
2018-09-02T09:57:31.177Z,11.40
2018-09-02T10:00:00.041Z,12.30
2018-09-02T10:02:28.921Z,12.10
2018-09-02T10:04:57.833Z,11.57
2018-09-02T10:07:26.708Z,12.20
2018-09-02T10:09:55.615Z,11.83
2018-09-02T10:12:24.533Z,12.07
2018-09-02T10:14:53.384Z,11.95
2018-09-02T10:17:22.382Z,12.45
2018-09-02T10:19:51.265Z,11.93
2018-09-02T10:22:20.148Z,12.70
2018-09-02T10:24:49.008Z,13.28
2018-09-02T10:27:18.030Z,12.45
2018-09-02T10:29:46.894Z,11.33
2018-09-02T10:32:15.745Z,12.37
2018-09-02T10:34:44.704Z,11.97
2018-09-02T10:37:13.549Z,13.05
2018-09-02T10:39:42.401Z,12.53
2018-09-02T10:42:11.385Z,12.03
2018-09-02T10:44:40.809Z,13.58
2018-09-02T10:47:09.686Z,12.28
2018-09-02T10:49:38.689Z,12.70
2018-09-02T10:52:07.616Z,12.60
2018-09-02T10:54:36.483Z,13.22
2018-09-02T10:57:05.387Z,13.50
2018-09-02T10:59:34.316Z,12.88
2018-09-02T11:02:03.160Z,12.80
2018-09-02T11:04:32.078Z,13.43
2018-09-02T11:07:00.962Z,12.30
2018-09-02T11:09:29.856Z,12.98
2018-09-02T11:11:58.815Z,12.45
2018-09-02T11:14:27.677Z,12.93
2018-09-02T11:16:56.554Z,13.78
2018-09-02T11:19:25.460Z,12.65
2018-09-02T11:21:54.589Z,12.88
2018-09-02T11:24:23.444Z,12.55
2018-09-02T11:26:52.424Z,14.03
2018-09-02T11:29:22.173Z,13.72
2018-09-02T11:31:51.037Z,13.78
2018-09-02T11:34:20.607Z,13.45
2018-09-02T11:36:50.286Z,13.60
2018-09-02T11:39:19.096Z,14.25
2018-09-02T11:41:47.982Z,13.13
2018-09-02T11:44:16.797Z,14.00
2018-09-02T11:46:45.748Z,13.28
2018-09-02T11:49:14.580Z,12.68
2018-09-02T11:51:43.394Z,13.43
2018-09-02T11:54:12.279Z,13.45
2018-09-02T11:56:41.193Z,12.43
2018-09-02T11:59:10.013Z,13.10
2018-09-02T12:01:39.298Z,13.35
2018-09-02T12:04:08.362Z,12.85
2018-09-02T12:06:37.347Z,12.82
2018-09-02T12:09:08.281Z,13.08
2018-09-02T12:11:37.470Z,12.93
2018-09-02T12:14:06.357Z,13.60
2018-09-02T12:16:35.285Z,12.95
2018-09-02T12:19:04.131Z,12.95
2018-09-02T12:21:33.088Z,13.10
2018-09-02T12:24:02.024Z,13.22
2018-09-02T12:26:30.925Z,11.93
2018-09-02T12:28:59.760Z,13.18
2018-09-02T12:31:29.384Z,12.80
2018-09-02T12:33:58.437Z,12.73
2018-09-02T12:36:27.263Z,12.55
2018-09-02T12:38:56.158Z,13.75
2018-09-02T12:41:24.971Z,12.85
2018-09-02T12:43:53.785Z,13.53
2018-09-02T12:46:22.639Z,12.73
2018-09-02T12:48:51.464Z,12.88
2018-09-02T12:51:20.359Z,13.20
2018-09-02T12:53:49.223Z,12.65
2018-09-02T12:56:18.060Z,12.18
2018-09-02T12:58:46.874Z,13.45
2018-09-02T13:01:15.755Z,13.45
2018-09-02T13:03:44.579Z,13.68
2018-09-02T13:06:13.384Z,13.45
2018-09-02T13:08:43.025Z,13.48
2018-09-02T13:11:11.836Z,13.72
2018-09-02T13:13:40.642Z,12.50
2018-09-02T13:16:09.533Z,14.03
2018-09-02T13:18:38.468Z,13.43
2018-09-02T13:21:07.347Z,13.53
2018-09-02T13:23:36.200Z,13.40
2018-09-02T13:26:05.192Z,12.23
2018-09-02T13:28:34.009Z,12.75
2018-09-02T13:31:03.068Z,12.33
2018-09-02T13:33:32.826Z,13.95
2018-09-02T13:36:01.677Z,12.30
2018-09-02T13:38:37.044Z,12.95
2018-09-02T13:41:05.879Z,12.28
2018-09-02T13:43:34.805Z,13.83
2018-09-02T13:46:03.651Z,13.38
2018-09-02T13:48:32.568Z,13.98
2018-09-02T13:51:01.461Z,14.07
2018-09-02T13:53:30.280Z,14.25
2018-09-02T13:55:59.114Z,14.45
2018-09-02T13:58:28.110Z,13.60
2018-09-02T14:00:56.969Z,14.10
2018-09-02T14:03:25.780Z,14.13
2018-09-02T14:05:54.877Z,14.00
2018-09-02T14:08:23.857Z,13.32
2018-09-02T14:10:52.666Z,13.40
2018-09-02T14:13:21.582Z,13.95
2018-09-02T14:15:50.469Z,13.70
2018-09-02T14:18:19.339Z,13.13
2018-09-02T14:20:48.233Z,14.53
2018-09-02T14:23:17.234Z,14.75
2018-09-02T14:25:46.035Z,16.70
2018-09-02T14:28:14.966Z,18.20
2018-09-02T14:30:44.012Z,28.07
2018-09-02T14:33:13.226Z,25.30
2018-09-02T14:35:42.245Z,23.47
2018-09-02T14:38:11.113Z,25.55
2018-09-02T14:40:40.050Z,25.70
2018-09-02T14:43:09.028Z,24.72
2018-09-02T14:45:37.916Z,23.30
2018-09-02T14:48:06.936Z,20.75
2018-09-02T14:50:36.046Z,19.30
2018-09-02T14:53:05.169Z,20.12
2018-09-02T14:55:34.827Z,19.40
2018-09-02T14:58:04.114Z,17.77
2018-09-02T15:00:33.027Z,16.55
2018-09-02T15:03:01.854Z,16.23
2018-09-02T15:05:31.235Z,16.00
2018-09-02T15:08:00.171Z,15.28
2018-09-02T15:10:29.084Z,14.35
2018-09-02T15:12:58.063Z,14.70
2018-09-02T15:15:28.729Z,12.98
2018-09-02T15:18:00.540Z,14.25
2018-09-02T15:20:29.408Z,13.72
2018-09-02T15:22:58.222Z,13.43
2018-09-02T15:25:27.096Z,12.18
2018-09-02T15:27:55.941Z,12.82
2018-09-02T15:30:24.801Z,12.47
2018-09-02T15:32:53.679Z,12.88
2018-09-02T15:38:32.901Z,13.05
2018-09-02T15:41:01.757Z,13.08
2018-09-02T15:43:30.603Z,12.68
2018-09-02T15:45:59.474Z,12.03
2018-09-02T15:48:28.303Z,11.93
2018-09-02T15:50:57.175Z,12.28
2018-09-02T15:53:26.067Z,11.45
2018-09-02T15:55:54.903Z,12.00
2018-09-02T15:58:23.725Z,11.20
2018-09-02T16:00:52.784Z,10.88
2018-09-02T16:03:21.685Z,10.82
2018-09-02T16:05:50.592Z,10.30
2018-09-02T16:08:19.468Z,10.70
2018-09-02T16:10:48.351Z,11.28
2018-09-02T16:13:17.173Z,9.55
2018-09-02T16:15:46.073Z,10.38
2018-09-02T16:18:14.880Z,9.93
2018-09-02T16:20:43.663Z,10.00
2018-09-02T16:23:12.503Z,9.68
2018-09-02T16:25:41.942Z,10.13
2018-09-02T16:28:11.083Z,10.32
2018-09-02T16:30:39.921Z,9.53
2018-09-02T16:33:08.736Z,9.13
2018-09-02T16:35:37.691Z,10.13
2018-09-02T16:38:06.520Z,9.30
2018-09-02T16:40:35.356Z,9.13
2018-09-02T16:43:04.221Z,9.25
2018-09-02T16:45:33.238Z,9.15
2018-09-02T16:48:02.491Z,9.03
2018-09-02T16:50:31.453Z,9.00
2018-09-02T16:53:00.436Z,8.50
2018-09-02T16:55:29.135Z,8.60
2018-09-02T16:57:57.980Z,8.63
2018-09-02T17:00:26.839Z,9.65
2018-09-02T17:02:55.693Z,8.78
2018-09-02T17:05:24.513Z,8.98
2018-09-02T17:07:56.149Z,8.85
2018-09-02T17:10:25.132Z,8.90
2018-09-02T17:12:54.106Z,8.70
2018-09-02T17:15:23.061Z,8.83
2018-09-02T17:17:51.908Z,8.80
2018-09-02T17:20:26.019Z,8.65
2018-09-02T17:22:59.059Z,9.20
2018-09-02T17:25:28.002Z,9.23
2018-09-02T17:27:56.859Z,9.15
2018-09-02T17:30:25.655Z,8.15
2018-09-02T17:32:54.637Z,9.95
2018-09-02T17:35:30.008Z,9.30
2018-09-02T17:37:59.810Z,9.68
2018-09-02T17:40:28.627Z,9.48
2018-09-02T17:42:57.504Z,9.53
2018-09-02T17:45:26.422Z,9.13
2018-09-02T17:47:55.343Z,9.55
2018-09-02T17:50:24.215Z,9.40
2018-09-02T17:52:53.103Z,9.63
2018-09-02T17:55:22.206Z,9.58
2018-09-02T17:57:51.236Z,10.05
2018-09-02T18:00:24.992Z,9.85
2018-09-02T18:02:54.577Z,9.58
2018-09-02T18:05:23.394Z,9.48
2018-09-02T18:07:52.352Z,10.03
2018-09-02T18:10:21.205Z,8.98
2018-09-02T18:12:50.051Z,9.78
2018-09-02T18:15:19.041Z,10.03
2018-09-02T18:17:47.866Z,9.68
2018-09-02T18:20:16.770Z,9.35
2018-09-02T18:22:45.628Z,10.00
2018-09-02T18:25:14.441Z,10.08
2018-09-02T18:27:45.840Z,11.03
2018-09-02T18:30:14.655Z,10.68
2018-09-02T18:32:43.465Z,10.30
2018-09-02T18:35:16.787Z,9.73
2018-09-02T18:37:46.209Z,9.55
2018-09-02T18:40:15.113Z,9.35
2018-09-02T18:42:44.027Z,9.95
2018-09-02T18:45:12.880Z,9.23
2018-09-02T18:47:41.797Z,9.78
2018-09-02T18:50:10.609Z,9.83
2018-09-02T18:52:39.468Z,9.35
2018-09-02T18:55:09.888Z,8.95
2018-09-02T18:57:39.482Z,8.40
2018-09-02T19:00:08.361Z,8.28
2018-09-02T19:02:37.348Z,8.90
2018-09-02T19:05:06.234Z,8.40
2018-09-02T19:07:35.031Z,8.33
2018-09-02T19:10:04.021Z,7.55
2018-09-02T19:12:32.822Z,7.28
2018-09-02T19:15:01.657Z,7.12
2018-09-02T19:17:30.844Z,8.43
2018-09-02T19:19:59.709Z,9.08
2018-09-02T19:22:28.845Z,7.90
2018-09-02T19:24:57.722Z,7.87
2018-09-02T19:27:26.740Z,8.98
2018-09-02T19:29:55.666Z,8.80
2018-09-02T19:32:25.234Z,9.85
2018-09-02T19:34:54.107Z,10.03
2018-09-02T19:37:22.970Z,9.35
2018-09-02T19:39:52.759Z,9.08
2018-09-02T19:42:21.615Z,9.53
2018-09-02T19:44:50.684Z,9.00
2018-09-02T19:47:19.540Z,9.50
2018-09-02T19:49:48.500Z,8.95
2018-09-02T19:52:17.354Z,9.88
2018-09-02T19:54:46.265Z,9.45
2018-09-02T19:57:15.179Z,9.50
2018-09-02T19:59:44.096Z,10.17
2018-09-02T20:02:12.948Z,9.18
2018-09-02T20:04:42.436Z,9.50
2018-09-02T20:07:11.351Z,8.98
2018-09-02T20:09:40.258Z,9.60
2018-09-02T20:12:09.172Z,8.85
2018-09-02T20:14:37.984Z,9.38
2018-09-02T20:17:06.965Z,9.18
2018-09-02T20:19:35.790Z,9.07
2018-09-02T20:22:04.824Z,8.75
2018-09-02T20:24:33.769Z,9.15
2018-09-02T20:27:02.618Z,9.10
2018-09-02T20:29:31.472Z,8.68
2018-09-02T20:32:00.402Z,8.13
2018-09-02T20:34:29.230Z,8.57
2018-09-02T20:36:58.076Z,8.35
2018-09-02T20:39:26.940Z,8.65
2018-09-02T20:41:55.758Z,8.90
2018-09-02T20:44:25.264Z,8.23
2018-09-02T20:46:54.157Z,8.43
2018-09-02T20:49:23.111Z,8.03
2018-09-02T20:51:51.993Z,8.20
2018-09-02T20:54:20.851Z,8.63
2018-09-02T20:56:49.835Z,8.20
2018-09-02T20:59:18.636Z,7.70
2018-09-02T21:01:47.471Z,7.78
2018-09-02T21:04:16.414Z,8.17
2018-09-02T21:06:45.224Z,8.30
2018-09-02T21:09:16.234Z,7.80
2018-09-02T21:11:45.592Z,7.70
2018-09-02T21:14:14.492Z,7.55
2018-09-02T21:16:43.308Z,7.53
2018-09-02T21:19:12.231Z,7.50
2018-09-02T21:21:41.060Z,7.43
2018-09-02T21:24:09.910Z,7.20
2018-09-02T21:26:38.817Z,7.33
2018-09-02T21:29:07.615Z,7.40
2018-09-02T21:31:36.423Z,7.43
2018-09-02T21:34:05.354Z,7.43
2018-09-02T21:36:34.166Z,7.13
2018-09-02T21:39:03.023Z,7.67
2018-09-02T21:41:31.902Z,7.00
2018-09-02T21:44:00.700Z,7.27
2018-09-02T21:46:29.511Z,7.10
2018-09-02T21:48:58.408Z,6.70
2018-09-02T21:51:27.414Z,6.90
2018-09-02T21:53:56.215Z,7.07
2018-09-02T21:56:25.129Z,7.37
2018-09-02T21:58:53.930Z,6.57
2018-09-02T22:01:22.792Z,7.23
2018-09-02T22:03:51.679Z,6.67
2018-09-02T22:06:20.499Z,6.87
2018-09-02T22:08:49.316Z,7.27
2018-09-02T22:11:18.216Z,7.20
2018-09-02T22:13:47.001Z,6.70
2018-09-02T22:16:15.843Z,6.50
2018-09-02T22:18:44.821Z,6.73
2018-09-02T22:21:13.627Z,7.03
2018-09-02T22:23:42.432Z,7.17
2018-09-02T22:26:11.261Z,6.37
2018-09-02T22:28:40.085Z,6.37
2018-09-02T22:31:08.912Z,6.90
2018-09-02T22:33:37.831Z,6.40
2018-09-02T22:36:06.648Z,6.33
2018-09-02T22:38:35.679Z,5.90
2018-09-02T22:41:04.593Z,6.47
2018-09-02T22:43:33.375Z,6.17
2018-09-02T22:46:02.169Z,6.40
2018-09-02T22:48:31.069Z,5.93
2018-09-02T22:50:59.876Z,6.40
2018-09-02T22:53:29.416Z,6.27
2018-09-02T22:55:58.259Z,6.53
2018-09-02T22:58:27.052Z,6.27
2018-09-02T23:00:55.871Z,6.40
2018-09-02T23:03:24.783Z,5.97
2018-09-02T23:05:53.586Z,6.53
2018-09-02T23:08:22.400Z,6.23
2018-09-02T23:10:51.251Z,6.53
2018-09-02T23:13:20.076Z,6.40
2018-09-02T23:15:48.884Z,5.67
2018-09-02T23:18:17.711Z,6.10
2018-09-02T23:20:46.588Z,6.63
2018-09-02T23:23:15.488Z,6.43
2018-09-02T23:25:44.401Z,6.33
2018-09-02T23:28:13.293Z,6.37
2018-09-02T23:30:42.104Z,6.50
2018-09-02T23:33:10.952Z,5.90
2018-09-02T23:35:39.751Z,6.50
2018-09-02T23:38:08.542Z,6.47
2018-09-02T23:40:37.395Z,6.37
2018-09-02T23:43:06.191Z,6.57
2018-09-02T23:45:35.012Z,6.43
2018-09-02T23:48:03.854Z,5.77
2018-09-02T23:50:32.656Z,5.90
2018-09-02T23:53:01.502Z,6.63
2018-09-02T23:55:30.389Z,6.40
2018-09-02T23:57:59.289Z,6.23
